sim
Sign-in with your pilot id or email,
or register
Callsign
Passwort

Schedule Details

Flight Number: DLH2785 (1)
Departure: Marsa Alam International Airport (HEMA) at 12:50
Arrival: Munich Airport (EDDM) at 17:40
Route: Lufthansa Passenger Schedule. Enter filed route here before submitting Pirep.

Weather Information
Getting current METAR information for HEMA 210100Z 30015KT CAVOK 30/22 Q1006 NOSIG
Getting current METAR information for EDDM 210220Z VRB02KT CAVOK 09/09 Q1016 NOSIG

Schedule Frequency

Route Map